sensor_id;sensor_type;location;lat;lon;timestamp;P1;durP1;ratioP1;P2;durP2;ratioP2
37425;SDS011;23285;50.180;7.036;2023-06-10T00:01:11;9.93;;;7.37;;
37425;SDS011;23285;50.180;7.036;2023-06-10T00:03:59;9.20;;;6.97;;
37425;SDS011;23285;50.180;7.036;2023-06-10T00:06:46;7.50;;;6.80;;
37425;SDS011;23285;50.180;7.036;2023-06-10T00:09:33;8.50;;;6.70;;
37425;SDS011;23285;50.180;7.036;2023-06-10T00:12:20;8.50;;;6.30;;
37425;SDS011;23285;50.180;7.036;2023-06-10T00:15:07;8.47;;;6.50;;
37425;SDS011;23285;50.180;7.036;2023-06-10T00:17:54;8.00;;;6.80;;
37425;SDS011;23285;50.180;7.036;2023-06-10T00:20:42;10.10;;;7.10;;
37425;SDS011;23285;50.180;7.036;2023-06-10T00:23:28;10.03;;;6.77;;
37425;SDS011;23285;50.180;7.036;2023-06-10T00:26:15;12.33;;;7.20;;
37425;SDS011;23285;50.180;7.036;2023-06-10T00:29:03;7.37;;;6.67;;
37425;SDS011;23285;50.180;7.036;2023-06-10T00:31:50;7.83;;;6.37;;
37425;SDS011;23285;50.180;7.036;2023-06-10T00:34:38;9.13;;;7.33;;
37425;SDS011;23285;50.180;7.036;2023-06-10T00:37:25;7.40;;;6.70;;
37425;SDS011;23285;50.180;7.036;2023-06-10T00:40:13;6.53;;;5.93;;
37425;SDS011;23285;50.180;7.036;2023-06-10T00:42:59;8.13;;;7.23;;
37425;SDS011;23285;50.180;7.036;2023-06-10T00:45:45;11.27;;;7.30;;
37425;SDS011;23285;50.180;7.036;2023-06-10T00:48:32;12.00;;;7.60;;
37425;SDS011;23285;50.180;7.036;2023-06-10T00:51:19;15.13;;;7.43;;
37425;SDS011;23285;50.180;7.036;2023-06-10T00:54:08;10.17;;;7.00;;
37425;SDS011;23285;50.180;7.036;2023-06-10T00:57:00;7.60;;;6.80;;
37425;SDS011;23285;50.180;7.036;2023-06-10T00:59:47;7.80;;;7.00;;
37425;SDS011;23285;50.180;7.036;2023-06-10T01:02:34;6.57;;;5.97;;
37425;SDS011;23285;50.180;7.036;2023-06-10T01:05:21;7.40;;;6.70;;
37425;SDS011;23285;50.180;7.036;2023-06-10T01:08:12;8.43;;;6.57;;
37425;SDS011;23285;50.180;7.036;2023-06-10T01:11:07;7.40;;;6.53;;
37425;SDS011;23285;50.180;7.036;2023-06-10T01:13:54;9.57;;;7.10;;
37425;SDS011;23285;50.180;7.036;2023-06-10T01:16:43;10.37;;;7.33;;
37425;SDS011;23285;50.180;7.036;2023-06-10T01:19:29;7.50;;;6.80;;
37425;SDS011;23285;50.180;7.036;2023-06-10T01:22:18;7.50;;;6.80;;
37425;SDS011;23285;50.180;7.036;2023-06-10T01:25:04;10.20;;;7.47;;
37425;SDS011;23285;50.180;7.036;2023-06-10T01:27:52;9.40;;;7.20;;
37425;SDS011;23285;50.180;7.036;2023-06-10T01:30:39;7.70;;;7.00;;
37425;SDS011;23285;50.180;7.036;2023-06-10T01:33:28;14.03;;;7.60;;
37425;SDS011;23285;50.180;7.036;2023-06-10T01:36:19;9.40;;;7.43;;
37425;SDS011;23285;50.180;7.036;2023-06-10T01:39:08;7.43;;;6.67;;
37425;SDS011;23285;50.180;7.036;2023-06-10T01:41:57;10.03;;;7.03;;
37425;SDS011;23285;50.180;7.036;2023-06-10T01:44:44;8.47;;;6.90;;
37425;SDS011;23285;50.180;7.036;2023-06-10T01:47:30;9.67;;;7.07;;
37425;SDS011;23285;50.180;7.036;2023-06-10T01:50:17;7.67;;;6.73;;
37425;SDS011;23285;50.180;7.036;2023-06-10T01:53:04;8.03;;;7.23;;
37425;SDS011;23285;50.180;7.036;2023-06-10T01:55:52;7.30;;;6.50;;
37425;SDS011;23285;50.180;7.036;2023-06-10T01:58:38;8.10;;;6.67;;
37425;SDS011;23285;50.180;7.036;2023-06-10T02:01:24;8.97;;;7.13;;
37425;SDS011;23285;50.180;7.036;2023-06-10T02:04:11;8.57;;;6.60;;
37425;SDS011;23285;50.180;7.036;2023-06-10T02:06:57;7.90;;;7.10;;
37425;SDS011;23285;50.180;7.036;2023-06-10T02:09:44;10.77;;;7.27;;
37425;SDS011;23285;50.180;7.036;2023-06-10T02:12:32;7.70;;;6.90;;
37425;SDS011;23285;50.180;7.036;2023-06-10T02:15:18;10.60;;;6.47;;
37425;SDS011;23285;50.180;7.036;2023-06-10T02:18:05;10.60;;;7.40;;
37425;SDS011;23285;50.180;7.036;2023-06-10T02:20:52;7.93;;;7.07;;
37425;SDS011;23285;50.180;7.036;2023-06-10T02:23:38;6.80;;;6.20;;
37425;SDS011;23285;50.180;7.036;2023-06-10T02:26:24;7.40;;;6.70;;
37425;SDS011;23285;50.180;7.036;2023-06-10T02:29:13;7.37;;;6.57;;
37425;SDS011;23285;50.180;7.036;2023-06-10T02:31:59;8.17;;;6.70;;
37425;SDS011;23285;50.180;7.036;2023-06-10T02:34:45;7.53;;;6.80;;
37425;SDS011;23285;50.180;7.036;2023-06-10T02:37:33;9.03;;;6.40;;
37425;SDS011;23285;50.180;7.036;2023-06-10T02:40:19;8.10;;;7.30;;
37425;SDS011;23285;50.180;7.036;2023-06-10T02:43:06;8.50;;;7.60;;
37425;SDS011;23285;50.180;7.036;2023-06-10T02:45:55;8.60;;;7.23;;
37425;SDS011;23285;50.180;7.036;2023-06-10T02:48:42;8.20;;;7.40;;
37425;SDS011;23285;50.180;7.036;2023-06-10T02:51:31;8.77;;;7.57;;
37425;SDS011;23285;50.180;7.036;2023-06-10T02:54:19;9.83;;;6.93;;
37425;SDS011;23285;50.180;7.036;2023-06-10T02:57:07;10.63;;;7.13;;
37425;SDS011;23285;50.180;7.036;2023-06-10T02:59:54;9.10;;;8.13;;
37425;SDS011;23285;50.180;7.036;2023-06-10T03:02:44;7.67;;;6.97;;
37425;SDS011;23285;50.180;7.036;2023-06-10T03:05:31;10.73;;;7.20;;
37425;SDS011;23285;50.180;7.036;2023-06-10T03:08:22;8.27;;;6.90;;
37425;SDS011;23285;50.180;7.036;2023-06-10T03:11:08;9.53;;;7.67;;
37425;SDS011;23285;50.180;7.036;2023-06-10T03:13:56;9.77;;;7.00;;
37425;SDS011;23285;50.180;7.036;2023-06-10T03:16:45;8.10;;;7.30;;
37425;SDS011;23285;50.180;7.036;2023-06-10T03:19:34;8.20;;;6.93;;
37425;SDS011;23285;50.180;7.036;2023-06-10T03:22:22;8.10;;;7.17;;
37425;SDS011;23285;50.180;7.036;2023-06-10T03:25:20;7.80;;;7.00;;
37425;SDS011;23285;50.180;7.036;2023-06-10T03:28:10;12.57;;;7.47;;
37425;SDS011;23285;50.180;7.036;2023-06-10T03:30:57;7.87;;;7.17;;
37425;SDS011;23285;50.180;7.036;2023-06-10T03:33:45;7.00;;;6.37;;
37425;SDS011;23285;50.180;7.036;2023-06-10T03:36:34;7.33;;;6.63;;
37425;SDS011;23285;50.180;7.036;2023-06-10T03:39:22;6.73;;;6.03;;
37425;SDS011;23285;50.180;7.036;2023-06-10T03:42:09;7.87;;;7.13;;
37425;SDS011;23285;50.180;7.036;2023-06-10T03:44:55;9.07;;;6.63;;
37425;SDS011;23285;50.180;7.036;2023-06-10T03:47:42;7.03;;;6.33;;
37425;SDS011;23285;50.180;7.036;2023-06-10T03:50:33;7.30;;;6.37;;
37425;SDS011;23285;50.180;7.036;2023-06-10T03:53:22;8.93;;;6.30;;
37425;SDS011;23285;50.180;7.036;2023-06-10T03:56:09;7.00;;;6.30;;
37425;SDS011;23285;50.180;7.036;2023-06-10T03:58:56;7.10;;;6.40;;
37425;SDS011;23285;50.180;7.036;2023-06-10T04:01:43;7.57;;;6.87;;
37425;SDS011;23285;50.180;7.036;2023-06-10T04:04:30;6.57;;;5.97;;
37425;SDS011;23285;50.180;7.036;2023-06-10T04:07:16;7.53;;;6.30;;
37425;SDS011;23285;50.180;7.036;2023-06-10T04:10:07;6.80;;;6.10;;
37425;SDS011;23285;50.180;7.036;2023-06-10T04:12:53;7.77;;;6.70;;
37425;SDS011;23285;50.180;7.036;2023-06-10T04:15:42;6.77;;;6.07;;
37425;SDS011;23285;50.180;7.036;2023-06-10T04:18:33;7.70;;;6.27;;
37425;SDS011;23285;50.180;7.036;2023-06-10T04:21:24;6.80;;;6.13;;
37425;SDS011;23285;50.180;7.036;2023-06-10T04:24:10;6.30;;;5.77;;
37425;SDS011;23285;50.180;7.036;2023-06-10T04:26:58;7.87;;;6.50;;
37425;SDS011;23285;50.180;7.036;2023-06-10T04:29:45;6.50;;;5.90;;
37425;SDS011;23285;50.180;7.036;2023-06-10T04:32:31;7.00;;;6.23;;
37425;SDS011;23285;50.180;7.036;2023-06-10T04:35:18;6.17;;;5.67;;
37425;SDS011;23285;50.180;7.036;2023-06-10T04:38:05;7.70;;;6.77;;
37425;SDS011;23285;50.180;7.036;2023-06-10T04:40:51;7.13;;;6.43;;
37425;SDS011;23285;50.180;7.036;2023-06-10T04:43:41;7.30;;;6.60;;
37425;SDS011;23285;50.180;7.036;2023-06-10T04:46:28;7.70;;;7.00;;
37425;SDS011;23285;50.180;7.036;2023-06-10T04:49:16;6.50;;;5.90;;
37425;SDS011;23285;50.180;7.036;2023-06-10T04:52:02;6.87;;;6.27;;
37425;SDS011;23285;50.180;7.036;2023-06-10T04:54:54;7.10;;;6.40;;
37425;SDS011;23285;50.180;7.036;2023-06-10T04:57:40;7.90;;;6.93;;
37425;SDS011;23285;50.180;7.036;2023-06-10T05:00:28;6.70;;;6.10;;
37425;SDS011;23285;50.180;7.036;2023-06-10T05:03:14;7.70;;;6.20;;
37425;SDS011;23285;50.180;7.036;2023-06-10T05:06:01;7.10;;;6.40;;
37425;SDS011;23285;50.180;7.036;2023-06-10T05:08:47;6.87;;;6.17;;
37425;SDS011;23285;50.180;7.036;2023-06-10T05:11:33;6.07;;;5.47;;
37425;SDS011;23285;50.180;7.036;2023-06-10T05:14:19;6.50;;;5.90;;
37425;SDS011;23285;50.180;7.036;2023-06-10T05:17:07;6.70;;;6.07;;
37425;SDS011;23285;50.180;7.036;2023-06-10T05:19:54;7.90;;;5.93;;
37425;SDS011;23285;50.180;7.036;2023-06-10T05:22:41;5.67;;;5.17;;
37425;SDS011;23285;50.180;7.036;2023-06-10T05:25:28;7.50;;;6.20;;
37425;SDS011;23285;50.180;7.036;2023-06-10T05:28:16;9.33;;;6.20;;
37425;SDS011;23285;50.180;7.036;2023-06-10T05:31:03;6.53;;;5.70;;
37425;SDS011;23285;50.180;7.036;2023-06-10T05:33:50;7.30;;;6.10;;
37425;SDS011;23285;50.180;7.036;2023-06-10T05:36:37;9.93;;;6.30;;
37425;SDS011;23285;50.180;7.036;2023-06-10T05:39:23;6.47;;;5.87;;
37425;SDS011;23285;50.180;7.036;2023-06-10T05:42:13;8.03;;;6.67;;
37425;SDS011;23285;50.180;7.036;2023-06-10T05:45:02;7.77;;;6.27;;
37425;SDS011;23285;50.180;7.036;2023-06-10T05:47:49;6.63;;;6.03;;
37425;SDS011;23285;50.180;7.036;2023-06-10T05:50:37;9.10;;;5.57;;
37425;SDS011;23285;50.180;7.036;2023-06-10T05:53:28;8.10;;;6.23;;
37425;SDS011;23285;50.180;7.036;2023-06-10T05:56:14;8.30;;;5.87;;
37425;SDS011;23285;50.180;7.036;2023-06-10T05:59:01;7.27;;;5.90;;
37425;SDS011;23285;50.180;7.036;2023-06-10T06:01:47;7.07;;;6.23;;
37425;SDS011;23285;50.180;7.036;2023-06-10T06:04:34;6.77;;;5.77;;
37425;SDS011;23285;50.180;7.036;2023-06-10T06:07:21;8.20;;;5.90;;
37425;SDS011;23285;50.180;7.036;2023-06-10T06:10:08;7.00;;;5.80;;
37425;SDS011;23285;50.180;7.036;2023-06-10T06:12:54;7.93;;;5.80;;
37425;SDS011;23285;50.180;7.036;2023-06-10T06:15:41;7.20;;;5.30;;
37425;SDS011;23285;50.180;7.036;2023-06-10T06:18:27;6.83;;;6.10;;
37425;SDS011;23285;50.180;7.036;2023-06-10T06:21:13;6.20;;;5.60;;
37425;SDS011;23285;50.180;7.036;2023-06-10T06:24:01;9.03;;;5.77;;
37425;SDS011;23285;50.180;7.036;2023-06-10T06:26:48;7.07;;;5.80;;
37425;SDS011;23285;50.180;7.036;2023-06-10T06:29:34;8.53;;;5.87;;
37425;SDS011;23285;50.180;7.036;2023-06-10T06:32:20;6.60;;;5.60;;
37425;SDS011;23285;50.180;7.036;2023-06-10T06:35:07;7.93;;;5.67;;
37425;SDS011;23285;50.180;7.036;2023-06-10T06:37:54;7.73;;;5.80;;
37425;SDS011;23285;50.180;7.036;2023-06-10T06:40:47;12.40;;;5.50;;
37425;SDS011;23285;50.180;7.036;2023-06-10T06:43:33;7.23;;;5.20;;
37425;SDS011;23285;50.180;7.036;2023-06-10T06:46:39;7.90;;;5.10;;
37425;SDS011;23285;50.180;7.036;2023-06-10T06:49:25;6.37;;;5.67;;
37425;SDS011;23285;50.180;7.036;2023-06-10T06:52:12;7.57;;;5.67;;
37425;SDS011;23285;50.180;7.036;2023-06-10T06:54:58;6.47;;;5.20;;
37425;SDS011;23285;50.180;7.036;2023-06-10T06:57:45;8.53;;;5.10;;
37425;SDS011;23285;50.180;7.036;2023-06-10T07:00:32;5.63;;;5.03;;
37425;SDS011;23285;50.180;7.036;2023-06-10T07:03:18;10.43;;;5.77;;
37425;SDS011;23285;50.180;7.036;2023-06-10T07:06:04;6.53;;;5.13;;
37425;SDS011;23285;50.180;7.036;2023-06-10T07:08:50;7.00;;;5.30;;
37425;SDS011;23285;50.180;7.036;2023-06-10T07:11:37;8.03;;;5.00;;
37425;SDS011;23285;50.180;7.036;2023-06-10T07:14:25;7.67;;;5.40;;
37425;SDS011;23285;50.180;7.036;2023-06-10T07:17:11;6.27;;;5.20;;
37425;SDS011;23285;50.180;7.036;2023-06-10T07:19:58;10.97;;;5.53;;
37425;SDS011;23285;50.180;7.036;2023-06-10T07:22:45;6.67;;;5.17;;
37425;SDS011;23285;50.180;7.036;2023-06-10T07:25:32;10.63;;;5.40;;
37425;SDS011;23285;50.180;7.036;2023-06-10T07:28:19;8.53;;;5.93;;
37425;SDS011;23285;50.180;7.036;2023-06-10T07:31:07;6.50;;;5.20;;
37425;SDS011;23285;50.180;7.036;2023-06-10T07:33:55;6.93;;;5.33;;
37425;SDS011;23285;50.180;7.036;2023-06-10T07:36:42;6.03;;;5.10;;
37425;SDS011;23285;50.180;7.036;2023-06-10T07:39:29;9.80;;;5.10;;
37425;SDS011;23285;50.180;7.036;2023-06-10T07:42:16;7.07;;;5.50;;
37425;SDS011;23285;50.180;7.036;2023-06-10T07:45:02;7.53;;;4.93;;
37425;SDS011;23285;50.180;7.036;2023-06-10T07:47:51;6.67;;;5.40;;
37425;SDS011;23285;50.180;7.036;2023-06-10T07:50:37;8.90;;;5.40;;
37425;SDS011;23285;50.180;7.036;2023-06-10T07:53:25;6.70;;;5.37;;
37425;SDS011;23285;50.180;7.036;2023-06-10T07:56:11;5.70;;;5.10;;
37425;SDS011;23285;50.180;7.036;2023-06-10T07:58:57;5.37;;;4.83;;
37425;SDS011;23285;50.180;7.036;2023-06-10T08:01:43;6.57;;;5.17;;
37425;SDS011;23285;50.180;7.036;2023-06-10T08:04:31;8.23;;;5.07;;
37425;SDS011;23285;50.180;7.036;2023-06-10T08:07:19;9.00;;;5.10;;
37425;SDS011;23285;50.180;7.036;2023-06-10T08:10:06;6.67;;;5.10;;
37425;SDS011;23285;50.180;7.036;2023-06-10T08:12:53;8.70;;;4.60;;
37425;SDS011;23285;50.180;7.036;2023-06-10T08:15:40;9.67;;;5.10;;
37425;SDS011;23285;50.180;7.036;2023-06-10T08:18:26;7.00;;;4.70;;
37425;SDS011;23285;50.180;7.036;2023-06-10T08:21:14;6.37;;;4.47;;
37425;SDS011;23285;50.180;7.036;2023-06-10T08:24:01;5.40;;;4.80;;
37425;SDS011;23285;50.180;7.036;2023-06-10T08:26:47;9.80;;;5.10;;
37425;SDS011;23285;50.180;7.036;2023-06-10T08:29:33;5.73;;;5.20;;
37425;SDS011;23285;50.180;7.036;2023-06-10T08:32:20;5.43;;;4.93;;
37425;SDS011;23285;50.180;7.036;2023-06-10T08:35:06;6.30;;;4.97;;
37425;SDS011;23285;50.180;7.036;2023-06-10T08:37:54;5.97;;;5.37;;
37425;SDS011;23285;50.180;7.036;2023-06-10T08:40:41;8.37;;;4.50;;
37425;SDS011;23285;50.180;7.036;2023-06-10T08:43:29;6.73;;;5.47;;
37425;SDS011;23285;50.180;7.036;2023-06-10T08:46:19;12.60;;;5.13;;
37425;SDS011;23285;50.180;7.036;2023-06-10T08:49:06;6.97;;;4.83;;
37425;SDS011;23285;50.180;7.036;2023-06-10T08:51:54;6.43;;;5.67;;
37425;SDS011;23285;50.180;7.036;2023-06-10T08:54:48;5.60;;;4.90;;
37425;SDS011;23285;50.180;7.036;2023-06-10T08:57:37;5.83;;;5.13;;
37425;SDS011;23285;50.180;7.036;2023-06-10T09:00:24;5.37;;;4.63;;
37425;SDS011;23285;50.180;7.036;2023-06-10T09:03:11;7.00;;;4.83;;
37425;SDS011;23285;50.180;7.036;2023-06-10T09:05:59;5.97;;;4.77;;
37425;SDS011;23285;50.180;7.036;2023-06-10T09:08:46;5.63;;;5.07;;
37425;SDS011;23285;50.180;7.036;2023-06-10T09:11:34;6.73;;;4.90;;
37425;SDS011;23285;50.180;7.036;2023-06-10T09:14:20;6.10;;;4.90;;
37425;SDS011;23285;50.180;7.036;2023-06-10T09:17:07;6.27;;;5.27;;
37425;SDS011;23285;50.180;7.036;2023-06-10T09:19:53;5.70;;;5.13;;
37425;SDS011;23285;50.180;7.036;2023-06-10T09:22:41;5.30;;;4.80;;
37425;SDS011;23285;50.180;7.036;2023-06-10T09:25:35;7.93;;;5.33;;
37425;SDS011;23285;50.180;7.036;2023-06-10T09:28:24;5.60;;;5.00;;
37425;SDS011;23285;50.180;7.036;2023-06-10T09:31:11;10.23;;;5.10;;
37425;SDS011;23285;50.180;7.036;2023-06-10T09:34:05;5.30;;;4.80;;
37425;SDS011;23285;50.180;7.036;2023-06-10T09:36:55;6.07;;;4.70;;
37425;SDS011;23285;50.180;7.036;2023-06-10T09:39:41;5.07;;;4.57;;
37425;SDS011;23285;50.180;7.036;2023-06-10T09:42:32;5.93;;;4.50;;
37425;SDS011;23285;50.180;7.036;2023-06-10T09:45:21;6.33;;;4.80;;
37425;SDS011;23285;50.180;7.036;2023-06-10T09:48:08;7.07;;;4.60;;
37425;SDS011;23285;50.180;7.036;2023-06-10T09:50:54;6.70;;;5.07;;
37425;SDS011;23285;50.180;7.036;2023-06-10T09:53:41;6.03;;;5.00;;
37425;SDS011;23285;50.180;7.036;2023-06-10T09:56:32;4.90;;;4.40;;
37425;SDS011;23285;50.180;7.036;2023-06-10T09:59:28;7.73;;;4.53;;
37425;SDS011;23285;50.180;7.036;2023-06-10T10:02:17;5.30;;;4.50;;
37425;SDS011;23285;50.180;7.036;2023-06-10T10:05:04;5.13;;;4.63;;
37425;SDS011;23285;50.180;7.036;2023-06-10T10:07:51;10.47;;;4.53;;
37425;SDS011;23285;50.180;7.036;2023-06-10T10:10:40;5.03;;;4.30;;
37425;SDS011;23285;50.180;7.036;2023-06-10T10:13:26;8.10;;;4.43;;
37425;SDS011;23285;50.180;7.036;2023-06-10T10:16:14;7.77;;;4.50;;
37425;SDS011;23285;50.180;7.036;2023-06-10T10:19:05;11.03;;;4.60;;
37425;SDS011;23285;50.180;7.036;2023-06-10T10:21:54;10.80;;;5.10;;
37425;SDS011;23285;50.180;7.036;2023-06-10T10:24:42;6.57;;;4.40;;
37425;SDS011;23285;50.180;7.036;2023-06-10T10:27:35;8.40;;;5.03;;
37425;SDS011;23285;50.180;7.036;2023-06-10T10:30:26;7.63;;;4.90;;
37425;SDS011;23285;50.180;7.036;2023-06-10T10:33:17;7.00;;;5.30;;
37425;SDS011;23285;50.180;7.036;2023-06-10T10:36:08;5.80;;;4.43;;
37425;SDS011;23285;50.180;7.036;2023-06-10T10:38:54;5.40;;;4.33;;
37425;SDS011;23285;50.180;7.036;2023-06-10T10:41:42;6.63;;;4.43;;
37425;SDS011;23285;50.180;7.036;2023-06-10T10:44:29;6.73;;;4.50;;
37425;SDS011;23285;50.180;7.036;2023-06-10T10:47:17;6.87;;;4.27;;
37425;SDS011;23285;50.180;7.036;2023-06-10T10:50:13;19.23;;;5.90;;
37425;SDS011;23285;50.180;7.036;2023-06-10T10:53:02;9.17;;;3.93;;
37425;SDS011;23285;50.180;7.036;2023-06-10T10:55:57;7.17;;;4.33;;
37425;SDS011;23285;50.180;7.036;2023-06-10T10:58:58;29.27;;;5.47;;
37425;SDS011;23285;50.180;7.036;2023-06-10T11:01:48;8.33;;;3.50;;
37425;SDS011;23285;50.180;7.036;2023-06-10T11:04:35;5.40;;;3.70;;
37425;SDS011;23285;50.180;7.036;2023-06-10T11:07:22;4.10;;;3.40;;
37425;SDS011;23285;50.180;7.036;2023-06-10T11:10:12;6.57;;;3.97;;
37425;SDS011;23285;50.180;7.036;2023-06-10T11:13:06;6.10;;;3.57;;
37425;SDS011;23285;50.180;7.036;2023-06-10T11:15:57;3.67;;;3.20;;
37425;SDS011;23285;50.180;7.036;2023-06-10T11:18:46;11.00;;;3.50;;
37425;SDS011;23285;50.180;7.036;2023-06-10T11:24:47;5.00;;;3.50;;
37425;SDS011;23285;50.180;7.036;2023-06-10T11:27:37;6.10;;;3.40;;
37425;SDS011;23285;50.180;7.036;2023-06-10T11:30:26;9.00;;;3.43;;
37425;SDS011;23285;50.180;7.036;2023-06-10T11:33:20;3.67;;;3.30;;
37425;SDS011;23285;50.180;7.036;2023-06-10T11:36:06;5.80;;;3.30;;
37425;SDS011;23285;50.180;7.036;2023-06-10T11:38:53;7.63;;;3.30;;
37425;SDS011;23285;50.180;7.036;2023-06-10T11:41:42;8.17;;;3.17;;
37425;SDS011;23285;50.180;7.036;2023-06-10T11:44:30;10.80;;;3.60;;
37425;SDS011;23285;50.180;7.036;2023-06-10T11:47:23;8.37;;;3.40;;
37425;SDS011;23285;50.180;7.036;2023-06-10T11:50:12;4.83;;;3.53;;
37425;SDS011;23285;50.180;7.036;2023-06-10T11:53:01;4.43;;;3.40;;
37425;SDS011;23285;50.180;7.036;2023-06-10T11:55:49;7.67;;;3.53;;
37425;SDS011;23285;50.180;7.036;2023-06-10T11:58:36;5.20;;;3.07;;
37425;SDS011;23285;50.180;7.036;2023-06-10T12:01:25;9.27;;;3.67;;
37425;SDS011;23285;50.180;7.036;2023-06-10T12:04:12;4.17;;;3.47;;
37425;SDS011;23285;50.180;7.036;2023-06-10T12:06:59;7.87;;;3.43;;
37425;SDS011;23285;50.180;7.036;2023-06-10T12:09:46;5.80;;;3.90;;
37425;SDS011;23285;50.180;7.036;2023-06-10T12:12:34;4.43;;;3.90;;
37425;SDS011;23285;50.180;7.036;2023-06-10T12:15:23;5.90;;;3.23;;
37425;SDS011;23285;50.180;7.036;2023-06-10T12:18:16;5.00;;;3.70;;
37425;SDS011;23285;50.180;7.036;2023-06-10T12:21:03;4.17;;;3.60;;
37425;SDS011;23285;50.180;7.036;2023-06-10T12:24:01;5.93;;;3.73;;
37425;SDS011;23285;50.180;7.036;2023-06-10T12:26:48;4.83;;;3.47;;
37425;SDS011;23285;50.180;7.036;2023-06-10T12:29:35;6.03;;;3.43;;
37425;SDS011;23285;50.180;7.036;2023-06-10T12:32:21;4.27;;;3.27;;
37425;SDS011;23285;50.180;7.036;2023-06-10T12:35:13;12.70;;;3.80;;
37425;SDS011;23285;50.180;7.036;2023-06-10T12:38:02;7.40;;;4.00;;
37425;SDS011;23285;50.180;7.036;2023-06-10T12:40:51;6.83;;;3.40;;
37425;SDS011;23285;50.180;7.036;2023-06-10T12:43:37;7.27;;;4.20;;
37425;SDS011;23285;50.180;7.036;2023-06-10T12:46:25;4.40;;;3.60;;
37425;SDS011;23285;50.180;7.036;2023-06-10T12:49:22;9.23;;;3.50;;
37425;SDS011;23285;50.180;7.036;2023-06-10T12:52:10;7.40;;;3.83;;
37425;SDS011;23285;50.180;7.036;2023-06-10T12:54:56;4.30;;;3.43;;
37425;SDS011;23285;50.180;7.036;2023-06-10T12:57:50;5.20;;;4.00;;
37425;SDS011;23285;50.180;7.036;2023-06-10T13:00:36;7.00;;;3.90;;
37425;SDS011;23285;50.180;7.036;2023-06-10T13:03:23;4.07;;;3.57;;
37425;SDS011;23285;50.180;7.036;2023-06-10T13:06:10;4.43;;;3.27;;
37425;SDS011;23285;50.180;7.036;2023-06-10T13:08:58;4.20;;;3.50;;
37425;SDS011;23285;50.180;7.036;2023-06-10T13:11:44;6.27;;;3.90;;
37425;SDS011;23285;50.180;7.036;2023-06-10T13:14:31;9.10;;;3.80;;
37425;SDS011;23285;50.180;7.036;2023-06-10T13:17:17;6.27;;;4.20;;
37425;SDS011;23285;50.180;7.036;2023-06-10T13:20:04;13.03;;;4.13;;
37425;SDS011;23285;50.180;7.036;2023-06-10T13:22:52;11.23;;;4.03;;
37425;SDS011;23285;50.180;7.036;2023-06-10T13:25:41;6.10;;;4.13;;
37425;SDS011;23285;50.180;7.036;2023-06-10T13:28:28;5.30;;;3.37;;
37425;SDS011;23285;50.180;7.036;2023-06-10T13:31:15;7.13;;;3.90;;
37425;SDS011;23285;50.180;7.036;2023-06-10T13:34:02;4.80;;;3.93;;
37425;SDS011;23285;50.180;7.036;2023-06-10T13:36:48;4.30;;;3.90;;
37425;SDS011;23285;50.180;7.036;2023-06-10T13:39:34;7.37;;;3.37;;
37425;SDS011;23285;50.180;7.036;2023-06-10T13:42:22;5.17;;;3.60;;
37425;SDS011;23285;50.180;7.036;2023-06-10T13:45:10;4.77;;;3.87;;
37425;SDS011;23285;50.180;7.036;2023-06-10T13:47:57;5.67;;;3.80;;
37425;SDS011;23285;50.180;7.036;2023-06-10T13:50:43;6.57;;;3.60;;
37425;SDS011;23285;50.180;7.036;2023-06-10T13:53:30;8.57;;;3.50;;
37425;SDS011;23285;50.180;7.036;2023-06-10T13:56:16;6.50;;;3.57;;
37425;SDS011;23285;50.180;7.036;2023-06-10T13:59:04;5.27;;;4.07;;
37425;SDS011;23285;50.180;7.036;2023-06-10T14:01:50;4.07;;;3.67;;
37425;SDS011;23285;50.180;7.036;2023-06-10T14:04:36;5.50;;;3.53;;
37425;SDS011;23285;50.180;7.036;2023-06-10T14:07:23;4.30;;;3.90;;
37425;SDS011;23285;50.180;7.036;2023-06-10T14:10:10;4.17;;;3.50;;
37425;SDS011;23285;50.180;7.036;2023-06-10T14:12:57;5.47;;;3.80;;
37425;SDS011;23285;50.180;7.036;2023-06-10T14:15:45;8.27;;;4.00;;
37425;SDS011;23285;50.180;7.036;2023-06-10T14:18:32;4.47;;;4.03;;
37425;SDS011;23285;50.180;7.036;2023-06-10T14:21:19;5.40;;;3.37;;
37425;SDS011;23285;50.180;7.036;2023-06-10T14:24:06;7.20;;;3.90;;
37425;SDS011;23285;50.180;7.036;2023-06-10T14:26:52;6.97;;;4.03;;
37425;SDS011;23285;50.180;7.036;2023-06-10T14:29:38;6.83;;;3.80;;
37425;SDS011;23285;50.180;7.036;2023-06-10T14:32:26;9.23;;;4.17;;
37425;SDS011;23285;50.180;7.036;2023-06-10T14:35:12;4.53;;;4.10;;
37425;SDS011;23285;50.180;7.036;2023-06-10T14:37:59;6.83;;;4.27;;
37425;SDS011;23285;50.180;7.036;2023-06-10T14:40:45;6.27;;;4.20;;
37425;SDS011;23285;50.180;7.036;2023-06-10T14:43:32;4.07;;;3.60;;
37425;SDS011;23285;50.180;7.036;2023-06-10T14:46:18;4.40;;;3.67;;
37425;SDS011;23285;50.180;7.036;2023-06-10T14:49:06;7.03;;;3.80;;
37425;SDS011;23285;50.180;7.036;2023-06-10T14:51:52;7.67;;;3.60;;
37425;SDS011;23285;50.180;7.036;2023-06-10T14:54:39;3.70;;;3.40;;
37425;SDS011;23285;50.180;7.036;2023-06-10T14:57:25;5.27;;;3.77;;
37425;SDS011;23285;50.180;7.036;2023-06-10T15:00:12;5.67;;;3.60;;
37425;SDS011;23285;50.180;7.036;2023-06-10T15:03:01;6.97;;;3.73;;
37425;SDS011;23285;50.180;7.036;2023-06-10T15:05:50;7.57;;;3.93;;
37425;SDS011;23285;50.180;7.036;2023-06-10T15:08:36;9.13;;;4.70;;
37425;SDS011;23285;50.180;7.036;2023-06-10T15:11:22;6.50;;;3.90;;
37425;SDS011;23285;50.180;7.036;2023-06-10T15:14:09;4.10;;;3.80;;
37425;SDS011;23285;50.180;7.036;2023-06-10T15:16:55;5.40;;;3.60;;
37425;SDS011;23285;50.180;7.036;2023-06-10T15:19:43;6.23;;;4.03;;
37425;SDS011;23285;50.180;7.036;2023-06-10T15:22:31;3.70;;;3.40;;
37425;SDS011;23285;50.180;7.036;2023-06-10T15:25:18;8.70;;;3.63;;
37425;SDS011;23285;50.180;7.036;2023-06-10T15:28:05;4.00;;;3.50;;
37425;SDS011;23285;50.180;7.036;2023-06-10T15:30:51;4.20;;;3.80;;
37425;SDS011;23285;50.180;7.036;2023-06-10T15:33:38;5.80;;;3.90;;
37425;SDS011;23285;50.180;7.036;2023-06-10T15:36:24;8.40;;;3.90;;
37425;SDS011;23285;50.180;7.036;2023-06-10T15:39:12;4.57;;;3.70;;
37425;SDS011;23285;50.180;7.036;2023-06-10T15:41:59;6.83;;;3.90;;
37425;SDS011;23285;50.180;7.036;2023-06-10T15:44:45;6.70;;;3.93;;
37425;SDS011;23285;50.180;7.036;2023-06-10T15:47:32;3.50;;;3.20;;
37425;SDS011;23285;50.180;7.036;2023-06-10T15:50:19;6.93;;;3.27;;
37425;SDS011;23285;50.180;7.036;2023-06-10T15:53:06;4.20;;;3.80;;
37425;SDS011;23285;50.180;7.036;2023-06-10T15:55:55;6.27;;;3.80;;
37425;SDS011;23285;50.180;7.036;2023-06-10T15:58:42;4.10;;;3.37;;
37425;SDS011;23285;50.180;7.036;2023-06-10T16:01:35;5.60;;;3.67;;
37425;SDS011;23285;50.180;7.036;2023-06-10T16:04:21;5.90;;;3.53;;
37425;SDS011;23285;50.180;7.036;2023-06-10T16:07:08;6.80;;;3.50;;
37425;SDS011;23285;50.180;7.036;2023-06-10T16:09:55;4.63;;;3.60;;
37425;SDS011;23285;50.180;7.036;2023-06-10T16:12:42;4.60;;;3.37;;
37425;SDS011;23285;50.180;7.036;2023-06-10T16:15:29;8.50;;;3.20;;
37425;SDS011;23285;50.180;7.036;2023-06-10T16:18:16;4.70;;;3.53;;
37425;SDS011;23285;50.180;7.036;2023-06-10T16:21:02;5.60;;;3.40;;
37425;SDS011;23285;50.180;7.036;2023-06-10T16:23:51;5.30;;;3.47;;
37425;SDS011;23285;50.180;7.036;2023-06-10T16:26:37;7.07;;;4.93;;
37425;SDS011;23285;50.180;7.036;2023-06-10T16:29:26;9.87;;;7.13;;
37425;SDS011;23285;50.180;7.036;2023-06-10T16:32:13;7.20;;;4.40;;
37425;SDS011;23285;50.180;7.036;2023-06-10T16:34:59;9.90;;;3.83;;
37425;SDS011;23285;50.180;7.036;2023-06-10T16:37:46;4.40;;;3.40;;
37425;SDS011;23285;50.180;7.036;2023-06-10T16:40:32;4.87;;;3.47;;
37425;SDS011;23285;50.180;7.036;2023-06-10T16:43:19;4.87;;;4.00;;
37425;SDS011;23285;50.180;7.036;2023-06-10T16:46:08;3.93;;;3.60;;
37425;SDS011;23285;50.180;7.036;2023-06-10T16:48:55;5.30;;;3.13;;
37425;SDS011;23285;50.180;7.036;2023-06-10T16:51:41;5.33;;;3.70;;